createdAt,value
2019-05-16T00:00:02.285Z,6.5566
2019-05-16T00:00:15.275Z,6.1872
2019-05-16T00:00:22.282Z,5.7224
2019-05-16T00:00:33.279Z,5.5808
2019-05-16T00:00:42.285Z,6.1186
2019-05-16T00:00:53.290Z,5.4199
2019-05-16T00:01:02.302Z,5.9204
2019-05-16T00:01:13.293Z,6.4963
2019-05-16T00:01:22.273Z,6.0040
2019-05-16T00:01:33.278Z,5.4067
2019-05-16T00:01:43.229Z,5.6966
2019-05-16T00:01:52.502Z,5.4678
2019-05-16T00:02:03.279Z,5.0312
2019-05-16T00:02:13.291Z,4.2099
2019-05-16T00:02:25.252Z,5.6706
2019-05-16T00:02:34.748Z,6.4312
2019-05-16T00:02:44.320Z,6.4543
2019-05-16T00:02:52.291Z,6.7282
2019-05-16T00:03:04.271Z,7.1844
2019-05-16T00:03:12.276Z,5.9628
2019-05-16T00:03:23.280Z,6.4617
2019-05-16T00:03:32.281Z,5.9210
2019-05-16T00:03:43.309Z,5.3608
2019-05-16T00:03:52.297Z,5.2707
2019-05-16T00:04:03.290Z,5.7529
2019-05-16T00:04:12.286Z,5.6316
2019-05-16T00:04:23.296Z,5.7800
2019-05-16T00:04:32.288Z,6.0569
2019-05-16T00:04:43.300Z,5.5702
2019-05-16T00:04:52.280Z,5.5710
2019-05-16T00:05:02.818Z,5.5460
2019-05-16T00:05:12.283Z,6.3677
2019-05-16T00:05:23.302Z,5.8190
2019-05-16T00:05:33.281Z,6.4221
2019-05-16T00:05:53.261Z,7.8278
2019-05-16T00:05:54.522Z,6.6556
2019-05-16T00:06:04.141Z,6.2166
2019-05-16T00:06:17.954Z,6.0160
2019-05-16T00:06:23.294Z,6.3125
2019-05-16T00:06:34.283Z,7.6793
2019-05-16T00:06:42.278Z,6.5449
2019-05-16T00:06:54.271Z,4.2130
2019-05-16T00:07:02.288Z,3.6398
2019-05-16T00:07:13.285Z,4.4260
2019-05-16T00:07:22.295Z,5.1697
2019-05-16T00:07:33.277Z,5.6404
2019-05-16T00:07:42.299Z,6.3431
2019-05-16T00:07:53.305Z,7.3543
2019-05-16T00:08:02.296Z,7.6200
2019-05-16T00:08:13.297Z,7.1373
2019-05-16T00:08:22.276Z,7.0825
2019-05-16T00:08:33.287Z,5.9050
2019-05-16T00:08:42.276Z,5.9884
2019-05-16T00:08:53.300Z,6.4786
2019-05-16T00:09:02.280Z,6.7483
2019-05-16T00:09:14.293Z,7.3499
2019-05-16T00:09:22.279Z,6.4502
2019-05-16T00:09:32.195Z,6.1194
2019-05-16T00:09:42.322Z,5.5246
2019-05-16T00:09:52.496Z,5.5725
2019-05-16T00:10:03.203Z,5.5811
2019-05-16T00:10:13.289Z,3.9527
2019-05-16T00:10:22.267Z,4.0975
2019-05-16T00:10:33.290Z,4.7036
2019-05-16T00:10:45.224Z,6.0739
2019-05-16T00:10:53.270Z,7.3783
2019-05-16T00:11:04.292Z,8.3233
2019-05-16T00:11:12.288Z,8.4603
2019-05-16T00:11:24.268Z,7.1674
2019-05-16T00:11:32.277Z,6.4585
2019-05-16T00:11:43.299Z,6.7777
2019-05-16T00:11:52.274Z,5.5120
2019-05-16T00:12:03.295Z,4.5607
2019-05-16T00:12:12.292Z,4.9146
2019-05-16T00:12:23.284Z,6.0014
2019-05-16T00:12:32.308Z,6.9620
2019-05-16T00:12:43.284Z,6.7356
2019-05-16T00:12:52.290Z,6.8713
2019-05-16T00:13:03.295Z,6.1737
2019-05-16T00:13:12.292Z,5.2754
2019-05-16T00:13:23.294Z,5.7401
2019-05-16T00:13:33.279Z,6.8109
2019-05-16T00:13:43.291Z,6.3318
2019-05-16T00:13:52.296Z,4.6878
2019-05-16T00:14:03.276Z,4.1446
2019-05-16T00:14:12.295Z,4.2237
2019-05-16T00:14:23.295Z,4.9886
2019-05-16T00:14:32.305Z,5.5726
2019-05-16T00:14:43.295Z,5.9629
2019-05-16T00:14:53.201Z,5.2375
2019-05-16T00:15:03.293Z,4.2868
2019-05-16T00:15:12.284Z,4.4395
2019-05-16T00:15:24.168Z,5.0147
2019-05-16T00:15:34.294Z,5.9655
2019-05-16T00:15:43.274Z,5.6142
2019-05-16T00:15:55.033Z,5.7701
2019-05-16T00:16:02.292Z,6.7665
2019-05-16T00:16:14.255Z,6.1429
2019-05-16T00:16:22.276Z,6.7039
2019-05-16T00:16:33.274Z,5.4416
2019-05-16T00:16:42.306Z,5.1082
2019-05-16T00:16:51.794Z,6.1692
2019-05-16T00:17:02.286Z,7.1753
2019-05-16T00:17:13.286Z,6.9542
2019-05-16T00:17:28.417Z,6.0587
2019-05-16T00:17:33.289Z,5.8446
2019-05-16T00:17:42.277Z,5.5510
2019-05-16T00:17:53.286Z,5.7787
2019-05-16T00:18:02.300Z,4.6116
2019-05-16T00:18:13.315Z,5.1838
2019-05-16T00:18:23.300Z,6.4962
2019-05-16T00:18:33.264Z,6.6622
2019-05-16T00:18:42.297Z,5.9580
2019-05-16T00:18:53.284Z,5.9520
2019-05-16T00:19:02.326Z,4.8740
2019-05-16T00:19:12.255Z,6.4314
2019-05-16T00:19:22.289Z,7.1889
2019-05-16T00:19:32.138Z,6.1222
2019-05-16T00:19:42.280Z,6.9710
2019-05-16T00:19:53.296Z,7.0653
2019-05-16T00:20:02.292Z,6.4997
2019-05-16T00:20:14.216Z,5.6125
2019-05-16T00:20:24.284Z,4.6159
2019-05-16T00:20:33.321Z,4.8027
2019-05-16T00:20:45.211Z,5.7102
2019-05-16T00:20:52.287Z,5.5993
2019-05-16T00:21:04.284Z,5.0812
2019-05-16T00:21:18.007Z,4.3280
2019-05-16T00:21:24.253Z,4.3569
2019-05-16T00:21:32.289Z,5.3369
2019-05-16T00:21:43.271Z,6.4566
2019-05-16T00:21:52.307Z,5.5360
2019-05-16T00:22:03.280Z,5.0272
2019-05-16T00:22:18.033Z,4.1928
2019-05-16T00:22:23.285Z,4.1639
2019-05-16T00:22:32.281Z,4.1082
2019-05-16T00:22:48.397Z,4.5569
2019-05-16T00:22:52.266Z,4.9260
2019-05-16T00:23:07.783Z,4.6887
2019-05-16T00:23:12.283Z,4.7002
2019-05-16T00:23:23.288Z,5.2035
2019-05-16T00:23:32.295Z,6.5846
2019-05-16T00:23:48.581Z,5.3074
2019-05-16T00:23:52.285Z,5.0276
2019-05-16T00:24:02.331Z,4.6613
2019-05-16T00:24:12.284Z,4.5883
2019-05-16T00:24:23.294Z,5.6756
2019-05-16T00:24:32.295Z,6.4384
2019-05-16T00:24:43.301Z,5.9402
2019-05-16T00:24:53.769Z,6.0511
2019-05-16T00:25:03.291Z,6.1186
2019-05-16T00:25:13.329Z,5.8909
2019-05-16T00:25:23.276Z,6.2165
2019-05-16T00:25:32.284Z,6.0248
2019-05-16T00:25:43.306Z,6.2700
2019-05-16T00:25:53.325Z,5.8831
2019-05-16T00:26:03.279Z,5.4891
2019-05-16T00:26:15.768Z,5.6590
2019-05-16T00:26:28.053Z,6.2526
2019-05-16T00:26:35.373Z,6.4115
2019-05-16T00:26:43.295Z,5.9789
2019-05-16T00:26:55.113Z,6.1406
2019-05-16T00:27:03.271Z,6.3458
2019-05-16T00:27:14.283Z,7.6628
2019-05-16T00:27:22.296Z,6.9628
2019-05-16T00:27:35.283Z,6.5700
2019-05-16T00:27:42.275Z,8.4429
2019-05-16T00:27:53.280Z,9.1229
2019-05-16T00:28:02.264Z,8.8177
2019-05-16T00:28:13.290Z,8.4953
2019-05-16T00:28:23.809Z,7.8842
2019-05-16T00:28:33.275Z,6.7311
2019-05-16T00:28:42.296Z,6.9370
2019-05-16T00:28:53.290Z,7.1087
2019-05-16T00:29:02.377Z,7.0307
2019-05-16T00:29:13.290Z,6.3506
2019-05-16T00:29:22.290Z,6.8447
2019-05-16T00:29:33.277Z,6.3257
2019-05-16T00:29:42.296Z,7.3359
2019-05-16T00:29:53.281Z,7.2501
2019-05-16T00:30:02.273Z,6.8969
2019-05-16T00:30:13.301Z,6.9412
2019-05-16T00:30:22.279Z,6.5668
2019-05-16T00:30:33.312Z,6.5690
2019-05-16T00:30:42.287Z,7.2365
2019-05-16T00:30:53.281Z,6.1892
2019-05-16T00:31:02.295Z,6.2758
2019-05-16T00:31:12.496Z,7.5256
2019-05-16T00:31:22.291Z,7.4644
2019-05-16T00:31:34.205Z,6.9327
2019-05-16T00:31:42.307Z,5.8153
2019-05-16T00:31:53.351Z,5.3122
2019-05-16T00:32:04.288Z,6.9216
2019-05-16T00:32:14.169Z,6.8128
2019-05-16T00:32:24.294Z,6.1766
2019-05-16T00:32:32.310Z,6.2229
2019-05-16T00:32:44.264Z,5.0892
2019-05-16T00:32:52.300Z,5.4181
2019-05-16T00:33:03.281Z,6.4532
2019-05-16T00:33:12.296Z,6.9209
2019-05-16T00:33:23.279Z,5.9963
2019-05-16T00:33:32.276Z,5.3340
2019-05-16T00:33:43.292Z,5.5671
2019-05-16T00:33:52.315Z,5.9006
2019-05-16T00:34:03.341Z,6.1471
2019-05-16T00:34:12.293Z,6.7327
2019-05-16T00:34:23.294Z,7.0563
2019-05-16T00:34:32.264Z,6.5125
2019-05-16T00:34:43.387Z,6.0431
2019-05-16T00:34:52.273Z,6.2524
2019-05-16T00:35:03.279Z,6.5480
2019-05-16T00:35:12.295Z,7.0583
2019-05-16T00:35:21.791Z,7.2605
2019-05-16T00:35:32.283Z,7.8343
2019-05-16T00:35:43.271Z,6.5920
2019-05-16T00:36:02.578Z,6.0879
2019-05-16T00:36:05.930Z,5.6841
2019-05-16T00:36:12.284Z,6.0447
2019-05-16T00:36:27.825Z,5.6457
2019-05-16T00:36:32.277Z,5.8060
2019-05-16T00:36:43.306Z,6.2899
2019-05-16T00:36:53.835Z,6.1836
2019-05-16T00:37:03.284Z,6.3490
2019-05-16T00:37:14.299Z,6.6734
2019-05-16T00:37:24.457Z,7.2962
2019-05-16T00:37:35.168Z,6.5429
2019-05-16T00:37:42.294Z,6.5243
2019-05-16T00:37:54.279Z,6.6721
2019-05-16T00:38:02.286Z,6.4639
2019-05-16T00:38:13.291Z,5.3805
2019-05-16T00:38:22.285Z,5.5083
2019-05-16T00:38:33.281Z,5.9759
2019-05-16T00:38:42.309Z,6.8780
2019-05-16T00:38:53.285Z,9.7571
2019-05-16T00:39:02.306Z,9.5187
2019-05-16T00:39:13.286Z,8.1988
2019-05-16T00:39:22.275Z,7.3626
2019-05-16T00:39:33.267Z,6.0289
2019-05-16T00:39:42.286Z,6.0551
2019-05-16T00:39:53.289Z,5.3634
2019-05-16T00:40:02.577Z,6.4600
2019-05-16T00:40:13.288Z,6.9300
2019-05-16T00:40:22.268Z,5.9149
2019-05-16T00:40:33.266Z,5.3539
2019-05-16T00:40:42.282Z,5.5373
2019-05-16T00:40:52.718Z,5.9330
2019-05-16T00:41:02.293Z,5.3919
2019-05-16T00:41:13.289Z,5.7858
2019-05-16T00:41:22.309Z,5.5511
2019-05-16T00:41:33.317Z,5.1779
2019-05-16T00:41:43.300Z,4.5273
2019-05-16T00:41:52.540Z,4.9618
2019-05-16T00:42:02.290Z,4.9462
2019-05-16T00:42:13.295Z,5.3052
2019-05-16T00:42:22.258Z,5.3217
2019-05-16T00:42:33.295Z,6.8108
2019-05-16T00:42:42.754Z,7.2554
2019-05-16T00:42:53.277Z,6.4218
2019-05-16T00:43:04.280Z,5.7277
2019-05-16T00:43:12.290Z,6.2253
2019-05-16T00:43:24.295Z,6.8022
2019-05-16T00:43:32.305Z,6.2618
2019-05-16T00:43:43.322Z,7.8467
2019-05-16T00:43:52.273Z,7.7174
2019-05-16T00:44:03.261Z,7.4210
2019-05-16T00:44:12.287Z,6.7098
2019-05-16T00:44:23.318Z,6.7106
2019-05-16T00:44:32.267Z,7.7949
2019-05-16T00:44:43.293Z,7.2573
2019-05-16T00:44:52.297Z,7.2937
2019-05-16T00:45:01.763Z,7.2362
2019-05-16T00:45:13.530Z,6.7865
2019-05-16T00:45:23.767Z,7.4758
2019-05-16T00:45:34.781Z,7.7444
2019-05-16T00:45:43.297Z,6.5746
2019-05-16T00:45:52.313Z,5.9933
2019-05-16T00:46:03.299Z,6.9416
2019-05-16T00:46:12.288Z,6.0472
2019-05-16T00:46:23.289Z,6.0819
2019-05-16T00:46:32.281Z,6.0320
2019-05-16T00:46:42.443Z,5.3907
2019-05-16T00:46:52.289Z,5.5452
2019-05-16T00:47:02.863Z,5.1373
2019-05-16T00:47:13.228Z,6.3268
2019-05-16T00:47:22.513Z,6.6665
2019-05-16T00:47:32.280Z,7.0121
2019-05-16T00:47:41.820Z,5.7785
2019-05-16T00:47:52.305Z,6.3295
2019-05-16T00:48:04.207Z,6.0317
2019-05-16T00:48:14.280Z,5.8632
2019-05-16T00:48:23.303Z,5.8123
2019-05-16T00:48:34.279Z,6.3629
2019-05-16T00:48:44.225Z,6.5400
2019-05-16T00:48:55.026Z,6.3298
2019-05-16T00:49:02.296Z,5.7925
2019-05-16T00:49:14.284Z,6.1973
2019-05-16T00:49:22.348Z,6.9231
2019-05-16T00:49:33.284Z,6.7074
2019-05-16T00:49:42.287Z,5.8354
2019-05-16T00:49:53.328Z,4.8797
2019-05-16T00:50:02.336Z,5.7890
2019-05-16T00:50:13.309Z,6.4567
2019-05-16T00:50:22.293Z,6.3087
2019-05-16T00:50:33.297Z,5.4358
2019-05-16T00:50:42.298Z,6.6767
2019-05-16T00:50:53.278Z,7.3093
2019-05-16T00:51:02.337Z,6.3833
2019-05-16T00:51:13.288Z,6.0545
2019-05-16T00:51:22.300Z,6.0495
2019-05-16T00:51:33.282Z,4.8497
2019-05-16T00:51:42.272Z,3.8717
2019-05-16T00:51:53.296Z,4.4821
2019-05-16T00:52:02.284Z,5.2883
2019-05-16T00:52:13.293Z,6.0641
2019-05-16T00:52:22.305Z,6.8167
2019-05-16T00:52:33.277Z,6.8679
2019-05-16T00:52:42.295Z,6.3096
2019-05-16T00:52:52.503Z,5.6498
2019-05-16T00:53:02.284Z,5.5221
2019-05-16T00:53:14.245Z,5.8470
2019-05-16T00:53:22.289Z,6.2695
2019-05-16T00:53:33.298Z,6.9084
2019-05-16T00:53:45.210Z,7.1918
2019-05-16T00:53:53.290Z,6.3438
2019-05-16T00:54:04.282Z,5.6691
2019-05-16T00:54:12.288Z,5.1240
2019-05-16T00:54:24.273Z,4.7592
2019-05-16T00:54:32.301Z,5.0291
2019-05-16T00:54:43.285Z,5.7072
2019-05-16T00:54:52.275Z,6.5386
2019-05-16T00:55:03.341Z,5.9498
2019-05-16T00:55:12.274Z,5.7824
2019-05-16T00:55:23.295Z,5.7905
2019-05-16T00:55:32.274Z,6.6083
2019-05-16T00:55:43.288Z,6.9141
2019-05-16T00:55:52.274Z,7.2200
2019-05-16T00:56:03.282Z,6.3669
2019-05-16T00:56:18.641Z,6.9465
2019-05-16T00:56:22.268Z,6.8909
2019-05-16T00:56:32.270Z,6.9614
2019-05-16T00:56:43.273Z,6.4121
2019-05-16T00:56:52.270Z,7.1125
2019-05-16T00:57:03.292Z,6.5793
2019-05-16T00:57:12.289Z,7.4361
2019-05-16T00:57:23.274Z,7.3559
2019-05-16T00:57:34.273Z,8.0438
2019-05-16T00:57:42.264Z,7.3462
2019-05-16T00:57:52.307Z,7.0207
2019-05-16T00:58:02.157Z,6.1071
2019-05-16T00:58:12.276Z,7.0880
2019-05-16T00:58:23.295Z,8.0628
2019-05-16T00:58:34.333Z,6.8219
2019-05-16T00:58:44.285Z,5.4015
2019-05-16T00:58:52.838Z,5.1845
2019-05-16T00:59:02.269Z,6.5594
2019-05-16T00:59:15.145Z,6.1843
2019-05-16T00:59:22.280Z,6.3636
2019-05-16T00:59:33.274Z,6.6407
2019-05-16T00:59:42.285Z,6.3153
2019-05-16T00:59:53.279Z,6.4218
2019-05-16T01:00:02.293Z,6.1250
2019-05-16T01:00:13.267Z,5.4789
2019-05-16T01:00:22.286Z,6.3439
2019-05-16T01:00:33.294Z,7.1534
2019-05-16T01:00:42.284Z,8.1584
2019-05-16T01:00:53.307Z,7.7683
2019-05-16T01:01:02.268Z,7.2683
2019-05-16T01:01:13.314Z,8.1409
2019-05-16T01:01:22.305Z,7.3405
2019-05-16T01:01:33.295Z,6.4327
2019-05-16T01:01:42.295Z,6.1324
2019-05-16T01:01:53.301Z,6.5050
2019-05-16T01:02:02.298Z,6.1876
2019-05-16T01:02:12.237Z,6.6555
2019-05-16T01:02:22.281Z,7.0311
2019-05-16T01:02:33.267Z,6.4753
2019-05-16T01:02:42.293Z,7.4982
2019-05-16T01:02:52.259Z,6.6522
2019-05-16T01:03:02.316Z,7.1190
2019-05-16T01:03:13.286Z,7.2974
2019-05-16T01:03:23.191Z,6.2506
2019-05-16T01:03:33.303Z,5.5637
2019-05-16T01:03:44.318Z,5.2580
2019-05-16T01:03:53.303Z,5.6749
2019-05-16T01:04:05.263Z,6.8957
2019-05-16T01:04:12.325Z,6.1155
2019-05-16T01:04:25.106Z,6.4208
2019-05-16T01:04:32.275Z,5.8393
2019-05-16T01:04:43.288Z,5.3676
2019-05-16T01:04:52.284Z,5.5384
2019-05-16T01:05:03.285Z,6.1073
2019-05-16T01:05:14.513Z,6.9058
2019-05-16T01:05:23.283Z,8.0534
2019-05-16T01:05:32.280Z,8.3136
2019-05-16T01:05:47.906Z,8.7218
2019-05-16T01:05:52.279Z,8.2267
2019-05-16T01:06:15.756Z,6.7802
2019-05-16T01:06:19.106Z,6.1375
2019-05-16T01:06:23.185Z,5.8040
2019-05-16T01:06:38.090Z,5.0519
2019-05-16T01:06:43.290Z,5.4695
2019-05-16T01:06:52.288Z,5.9909
2019-05-16T01:07:08.248Z,6.2222
2019-05-16T01:07:12.276Z,6.8468
2019-05-16T01:07:23.287Z,6.8257
2019-05-16T01:07:32.277Z,6.9458
2019-05-16T01:07:43.285Z,7.0246
2019-05-16T01:07:52.271Z,6.2601
2019-05-16T01:08:03.281Z,5.8401
2019-05-16T01:08:12.302Z,5.5503
2019-05-16T01:08:28.263Z,5.6352
2019-05-16T01:08:32.285Z,6.3088
2019-05-16T01:08:43.308Z,7.1608
2019-05-16T01:08:52.299Z,6.4224
2019-05-16T01:09:04.314Z,6.1269
2019-05-16T01:09:14.312Z,5.4982
2019-05-16T01:09:24.104Z,6.2205
2019-05-16T01:09:34.281Z,6.7847
2019-05-16T01:09:43.257Z,6.9139
2019-05-16T01:09:54.306Z,6.4003
2019-05-16T01:10:02.283Z,7.0581
2019-05-16T01:10:14.315Z,6.6066
2019-05-16T01:10:22.281Z,5.8003
2019-05-16T01:10:33.295Z,5.3496
2019-05-16T01:10:42.302Z,5.5161
2019-05-16T01:10:53.291Z,5.5218
2019-05-16T01:11:02.307Z,5.3327
2019-05-16T01:11:13.297Z,5.9035
2019-05-16T01:11:22.272Z,6.2478
2019-05-16T01:11:33.289Z,7.6839
2019-05-16T01:11:42.276Z,7.7403
2019-05-16T01:11:51.805Z,6.9955
2019-05-16T01:12:02.298Z,6.9592
2019-05-16T01:12:13.268Z,6.6463
2019-05-16T01:12:22.277Z,6.4817
2019-05-16T01:12:33.284Z,6.1111
2019-05-16T01:12:42.288Z,5.7366
2019-05-16T01:12:53.295Z,4.9461
2019-05-16T01:13:02.282Z,5.1071
2019-05-16T01:13:13.283Z,5.6757
2019-05-16T01:13:22.269Z,5.8258
2019-05-16T01:13:33.284Z,5.2313
2019-05-16T01:13:42.304Z,5.9341
2019-05-16T01:13:52.245Z,7.0857
2019-05-16T01:14:02.309Z,7.3059
2019-05-16T01:14:13.302Z,6.5341
2019-05-16T01:14:22.295Z,6.9346
2019-05-16T01:14:32.207Z,6.9664
2019-05-16T01:14:42.282Z,7.3496
2019-05-16T01:14:53.278Z,6.7991
2019-05-16T01:15:02.854Z,6.3226
2019-05-16T01:15:14.700Z,5.8368
2019-05-16T01:15:24.290Z,6.7912
2019-05-16T01:15:33.280Z,6.0380
2019-05-16T01:15:42.770Z,5.2505
2019-05-16T01:15:52.286Z,4.4781
2019-05-16T01:16:05.207Z,5.6053
2019-05-16T01:16:12.275Z,5.6868
2019-05-16T01:16:24.290Z,4.9128
2019-05-16T01:16:32.295Z,5.1821
2019-05-16T01:16:43.314Z,5.3790
2019-05-16T01:16:52.285Z,5.5348
2019-05-16T01:17:03.302Z,6.6590
2019-05-16T01:17:12.286Z,6.9125
2019-05-16T01:17:23.298Z,7.7334
2019-05-16T01:17:32.288Z,7.5333
2019-05-16T01:17:43.910Z,5.7947
2019-05-16T01:17:52.314Z,6.1880
2019-05-16T01:18:03.273Z,6.0013
2019-05-16T01:18:12.313Z,5.8715
2019-05-16T01:18:23.287Z,5.8377
2019-05-16T01:18:32.271Z,5.8274
2019-05-16T01:18:43.281Z,7.0353
2019-05-16T01:18:52.290Z,7.9211
2019-05-16T01:19:03.305Z,7.6894
2019-05-16T01:19:12.261Z,8.6137
2019-05-16T01:19:27.908Z,7.5125
2019-05-16T01:19:32.284Z,6.8597
2019-05-16T01:19:43.296Z,5.9906
2019-05-16T01:19:52.290Z,5.7723
2019-05-16T01:20:03.275Z,6.3809
2019-05-16T01:20:12.285Z,6.4024
2019-05-16T01:20:23.300Z,7.1684
2019-05-16T01:20:32.299Z,8.3785
2019-05-16T01:20:42.296Z,8.1553
2019-05-16T01:20:52.312Z,6.4501
2019-05-16T01:21:02.120Z,6.4664
2019-05-16T01:21:13.306Z,7.2124
2019-05-16T01:21:22.766Z,7.3485
2019-05-16T01:21:32.291Z,7.7608
2019-05-16T01:21:43.339Z,6.1562
2019-05-16T01:21:54.289Z,6.3032
2019-05-16T01:22:03.295Z,6.2167
2019-05-16T01:22:14.307Z,6.4390
2019-05-16T01:22:22.269Z,7.7247
2019-05-16T01:22:34.287Z,7.1639
2019-05-16T01:22:42.293Z,7.5070
2019-05-16T01:22:53.314Z,5.9879
2019-05-16T01:23:02.313Z,5.8599
2019-05-16T01:23:13.274Z,6.4571
2019-05-16T01:23:22.289Z,6.0983
2019-05-16T01:23:33.293Z,5.8594
2019-05-16T01:23:44.807Z,6.8890
2019-05-16T01:23:54.815Z,6.5416
2019-05-16T01:24:02.293Z,7.3094
2019-05-16T01:24:13.288Z,8.0391
2019-05-16T01:24:22.292Z,7.8296
2019-05-16T01:24:33.294Z,8.0876
2019-05-16T01:24:42.288Z,7.1027
2019-05-16T01:24:53.296Z,6.9523
2019-05-16T01:25:02.285Z,6.5319
2019-05-16T01:25:13.296Z,7.1401
2019-05-16T01:25:22.271Z,8.1879
2019-05-16T01:25:32.731Z,8.0242
2019-05-16T01:25:48.435Z,8.0450
2019-05-16T01:25:52.433Z,7.9744
2019-05-16T01:26:03.787Z,6.7015
2019-05-16T01:26:13.282Z,7.4341
2019-05-16T01:26:23.080Z,7.5486
2019-05-16T01:26:32.244Z,7.8155
2019-05-16T01:26:42.284Z,6.7095
2019-05-16T01:26:53.290Z,6.4616
2019-05-16T01:27:03.193Z,6.5992
2019-05-16T01:27:13.290Z,5.9757
2019-05-16T01:27:24.285Z,6.6545
2019-05-16T01:27:33.280Z,7.0210
2019-05-16T01:27:45.224Z,6.4343
2019-05-16T01:27:52.273Z,6.6380
2019-05-16T01:28:03.293Z,6.6205
2019-05-16T01:28:12.263Z,5.8164
2019-05-16T01:28:23.276Z,5.9081
2019-05-16T01:28:32.291Z,5.4655
2019-05-16T01:28:43.280Z,6.3536
2019-05-16T01:28:52.282Z,6.5205
2019-05-16T01:29:03.305Z,6.9113
2019-05-16T01:29:12.269Z,6.7035
2019-05-16T01:29:23.292Z,5.7896
2019-05-16T01:29:32.282Z,5.3555
2019-05-16T01:29:43.274Z,5.7839
2019-05-16T01:29:52.436Z,6.3067
2019-05-16T01:30:03.295Z,6.2688
2019-05-16T01:30:12.274Z,6.4331
2019-05-16T01:30:23.267Z,6.9722
2019-05-16T01:30:32.285Z,7.1769
2019-05-16T01:30:43.268Z,6.4284
2019-05-16T01:30:52.297Z,6.2649
2019-05-16T01:31:03.279Z,5.9413
2019-05-16T01:31:12.285Z,6.0182
2019-05-16T01:31:22.213Z,5.3425
2019-05-16T01:31:32.284Z,5.4749
2019-05-16T01:31:43.296Z,6.3845
2019-05-16T01:31:53.177Z,6.1908
2019-05-16T01:32:03.291Z,5.9167
2019-05-16T01:32:12.298Z,5.6215
2019-05-16T01:32:23.278Z,6.6115
2019-05-16T01:32:33.374Z,6.5779
2019-05-16T01:32:44.806Z,5.7911
2019-05-16T01:32:53.802Z,4.9872
2019-05-16T01:33:03.320Z,6.2481
2019-05-16T01:33:14.294Z,6.3263
2019-05-16T01:33:24.266Z,5.9191
2019-05-16T01:33:34.282Z,5.7120
2019-05-16T01:33:42.284Z,6.7256
2019-05-16T01:33:55.295Z,7.0644
2019-05-16T01:34:04.824Z,7.5187
2019-05-16T01:34:13.304Z,6.9674
2019-05-16T01:34:22.276Z,6.2132
2019-05-16T01:34:33.278Z,5.0202
2019-05-16T01:34:42.288Z,4.6465
2019-05-16T01:34:53.292Z,5.2474
2019-05-16T01:35:02.297Z,5.6395
2019-05-16T01:35:13.291Z,5.2957
2019-05-16T01:35:22.281Z,5.6771
2019-05-16T01:35:33.277Z,7.1078
2019-05-16T01:35:42.296Z,6.7456
2019-05-16T01:35:53.290Z,6.9617
2019-05-16T01:36:02.266Z,7.3831
2019-05-16T01:36:13.275Z,7.9972
2019-05-16T01:36:36.100Z,7.9181
2019-05-16T01:36:36.960Z,5.9360
2019-05-16T01:36:42.293Z,5.2182
2019-05-16T01:36:53.284Z,5.6929
2019-05-16T01:37:02.319Z,6.0827
2019-05-16T01:37:13.301Z,7.3781
2019-05-16T01:37:22.287Z,6.4568
2019-05-16T01:37:33.322Z,7.2289
2019-05-16T01:37:42.287Z,7.7094
2019-05-16T01:37:52.264Z,7.1747
2019-05-16T01:38:02.272Z,6.6373
2019-05-16T01:38:13.297Z,6.2216
2019-05-16T01:38:22.282Z,6.5465
2019-05-16T01:38:33.293Z,6.2128
2019-05-16T01:38:42.304Z,5.8005
2019-05-16T01:38:53.290Z,7.0206
2019-05-16T01:39:05.054Z,7.8882
2019-05-16T01:39:14.415Z,8.1059
2019-05-16T01:39:24.275Z,7.0210
2019-05-16T01:39:34.106Z,6.9608
2019-05-16T01:39:44.283Z,8.7856
2019-05-16T01:39:52.304Z,9.9681
2019-05-16T01:40:04.294Z,7.9541
2019-05-16T01:40:12.295Z,7.5172
2019-05-16T01:40:23.296Z,7.3413
2019-05-16T01:40:32.264Z,7.6389
2019-05-16T01:40:43.270Z,7.1606
2019-05-16T01:40:52.290Z,7.1071
2019-05-16T01:41:03.284Z,7.6831
2019-05-16T01:41:12.288Z,8.6283
2019-05-16T01:41:23.290Z,9.0533
2019-05-16T01:41:32.285Z,8.4591
2019-05-16T01:41:43.274Z,8.0724
2019-05-16T01:41:52.303Z,7.5805
2019-05-16T01:42:03.280Z,8.1933
2019-05-16T01:42:12.280Z,7.1565
2019-05-16T01:42:23.270Z,6.5496
2019-05-16T01:42:32.284Z,6.2806
2019-05-16T01:42:42.717Z,6.5733
2019-05-16T01:42:53.271Z,8.1238
2019-05-16T01:43:03.304Z,7.9670
2019-05-16T01:43:14.287Z,7.4952
2019-05-16T01:43:23.300Z,6.7431
2019-05-16T01:43:33.354Z,6.0909
2019-05-16T01:43:43.302Z,5.7078
2019-05-16T01:43:53.150Z,5.7153
2019-05-16T01:44:04.325Z,6.0643
2019-05-16T01:44:18.327Z,5.1822
2019-05-16T01:44:22.331Z,4.8371
2019-05-16T01:44:38.195Z,5.9230
2019-05-16T01:44:42.274Z,6.2713
2019-05-16T01:44:57.698Z,5.7130
2019-05-16T01:45:02.283Z,7.2740
2019-05-16T01:45:13.306Z,6.8714
2019-05-16T01:45:22.286Z,6.5659
2019-05-16T01:45:33.280Z,6.3515
2019-05-16T01:45:42.313Z,6.4576
2019-05-16T01:45:53.306Z,6.9409
2019-05-16T01:46:04.268Z,7.6513
2019-05-16T01:46:17.845Z,8.3120
2019-05-16T01:46:22.321Z,8.0493
2019-05-16T01:46:33.274Z,7.2263
2019-05-16T01:46:42.304Z,6.2865
2019-05-16T01:46:53.276Z,6.5740
2019-05-16T01:47:02.284Z,7.5672
2019-05-16T01:47:13.296Z,7.9949
2019-05-16T01:47:22.299Z,8.6624
2019-05-16T01:47:33.295Z,7.7624
2019-05-16T01:47:42.283Z,6.0683
2019-05-16T01:47:58.700Z,5.7744
2019-05-16T01:48:02.286Z,6.0473
2019-05-16T01:48:14.895Z,6.6926
2019-05-16T01:48:22.285Z,9.5213
2019-05-16T01:48:33.279Z,9.6432
2019-05-16T01:48:43.307Z,9.0296
2019-05-16T01:48:53.290Z,8.1734
2019-05-16T01:49:02.295Z,6.4170
2019-05-16T01:49:14.290Z,5.7585
2019-05-16T01:49:24.316Z,6.6581
2019-05-16T01:49:33.276Z,6.6255
2019-05-16T01:49:44.276Z,6.7414
2019-05-16T01:49:52.272Z,6.9167
2019-05-16T01:50:08.726Z,7.5226
2019-05-16T01:50:12.272Z,7.0349
2019-05-16T01:50:23.297Z,6.2885
2019-05-16T01:50:33.779Z,6.6899
2019-05-16T01:50:43.281Z,5.6456
2019-05-16T01:50:52.275Z,4.6310
2019-05-16T01:51:03.291Z,5.0816
2019-05-16T01:51:12.296Z,6.1157
2019-05-16T01:51:23.271Z,6.1653
2019-05-16T01:51:32.302Z,6.5468
2019-05-16T01:51:43.292Z,7.0534
2019-05-16T01:51:52.291Z,6.0332
2019-05-16T01:52:03.290Z,5.7121
2019-05-16T01:52:12.304Z,6.5443
2019-05-16T01:52:23.273Z,8.0023
2019-05-16T01:52:32.274Z,7.6691
2019-05-16T01:52:42.708Z,7.3275
2019-05-16T01:52:52.297Z,6.9066
2019-05-16T01:53:02.196Z,6.8697
2019-05-16T01:53:14.303Z,7.0053
2019-05-16T01:53:23.294Z,6.9230
2019-05-16T01:53:33.178Z,7.3669
2019-05-16T01:53:42.490Z,5.9105
2019-05-16T01:53:52.266Z,6.0168
2019-05-16T01:54:04.070Z,7.7428
2019-05-16T01:54:13.309Z,8.7963
2019-05-16T01:54:22.351Z,7.6444
2019-05-16T01:54:32.785Z,7.0546
2019-05-16T01:54:43.288Z,6.2464
2019-05-16T01:54:55.144Z,6.2240
2019-05-16T01:55:02.306Z,6.3586
2019-05-16T01:55:18.719Z,6.2663
2019-05-16T01:55:22.279Z,6.0557
2019-05-16T01:55:38.135Z,6.8107
2019-05-16T01:55:42.269Z,7.3580
2019-05-16T01:55:53.276Z,7.1907
2019-05-16T01:56:02.274Z,7.1887
2019-05-16T01:56:13.284Z,7.2702
2019-05-16T01:56:22.284Z,6.6674
2019-05-16T01:56:33.291Z,7.4102
2019-05-16T01:56:42.278Z,8.2838
2019-05-16T01:56:53.273Z,8.1284
2019-05-16T01:57:02.810Z,7.4858
2019-05-16T01:57:13.278Z,6.3803
2019-05-16T01:57:22.298Z,6.4467
2019-05-16T01:57:33.278Z,5.1824
2019-05-16T01:57:48.068Z,5.3078
2019-05-16T01:57:53.285Z,5.5980
2019-05-16T01:58:02.291Z,6.5756
2019-05-16T01:58:12.312Z,6.4984
2019-05-16T01:58:22.287Z,7.1112
2019-05-16T01:58:32.100Z,6.8049
2019-05-16T01:58:43.324Z,6.8729
2019-05-16T01:58:58.297Z,7.8867
2019-05-16T01:59:02.293Z,8.6968
2019-05-16T01:59:13.314Z,8.6247
2019-05-16T01:59:22.275Z,8.0249
2019-05-16T01:59:34.274Z,6.8438
2019-05-16T01:59:42.304Z,6.3923
2019-05-16T01:59:53.312Z,6.0909
2019-05-16T02:00:02.318Z,6.0071
2019-05-16T02:00:13.287Z,6.0827
2019-05-16T02:00:26.057Z,5.8300
2019-05-16T02:00:36.514Z,5.7937
2019-05-16T02:00:57.740Z,6.0507
2019-05-16T02:01:02.060Z,6.9499
2019-05-16T02:01:12.389Z,7.7587
2019-05-16T02:01:15.780Z,8.3649
2019-05-16T02:01:23.305Z,8.1991
2019-05-16T02:01:32.306Z,8.4612
2019-05-16T02:01:43.296Z,8.2245
2019-05-16T02:01:52.279Z,7.2610
2019-05-16T02:02:03.289Z,6.7560
2019-05-16T02:02:12.300Z,7.2464
2019-05-16T02:02:23.304Z,6.0766
2019-05-16T02:02:32.288Z,6.0801
2019-05-16T02:02:43.270Z,7.6454
2019-05-16T02:02:52.270Z,8.1878
2019-05-16T02:03:03.290Z,7.7539
2019-05-16T02:03:12.270Z,8.4062
2019-05-16T02:03:23.291Z,7.9392
2019-05-16T02:03:32.294Z,8.2450
2019-05-16T02:03:43.298Z,8.9633
2019-05-16T02:03:52.280Z,8.0316
2019-05-16T02:04:03.285Z,8.2336
2019-05-16T02:04:12.465Z,7.9959
2019-05-16T02:04:23.280Z,7.9193
2019-05-16T02:04:32.298Z,7.7621
2019-05-16T02:04:43.307Z,7.8131